Terminal Aerodrome Forecast
Issued by NWS Atlanta, GA

Home | Current Version | Previous Version | Text Only | Print | Product List | Glossary On
Versions: 1 2 3 4 5 6 7 8 9 10 11 12 13 14 15 16 17 18 19 20 21
000
FTUS42 KFFC 301800 AAA
TAFMCN
TAF AMD
KMCN 301858Z 3019/0118 04005KT P6SM SCT020 BKN040
      TEMPO 3019/3022 BKN020
     FM302200 VRB03KT P6SM BKN040
     FM010100 VRB03KT P6SM SCT030
     FM011000 00000KT 2SM BR SCT008 SCT030
     FM011400 23005KT P6SM SCT040=

USA.gov is the U.S. government's official web portal to all federal, state and local government web resources and services.